This is the latest recevied weather packets stored in our database for station/object OE-11344. If no packets are shown the sender has not sent any weather packets the latest 10 day(s).
| Time | Temp. | Humidity | Pressure | Rain* | Wind** | Luminosity | Snow |
|---|---|---|---|---|---|---|---|
| 1787963712 | 11.11° C | 91% | 853.9 hPa | 2.03 mm | - | 0 W/m² | - |
| 1787963111 | 11.67° C | 92% | 853.7 hPa | 2.03 mm | - | 0 W/m² | - |
| 1787962284 | 12.22° C | 92% | 852.8 hPa | 2.03 mm | - | 0 W/m² | - |
| 1787961911 | 13.33° C | 94% | 852.5 hPa | 2.03 mm | - | 0 W/m² | - |
| 1787961312 | 13.89° C | 94% | 852.4 hPa | 2.03 mm | - | 0 W/m² | - |
| 1787960485 | 13.89° C | 95% | 852.2 hPa | 1.78 mm | - | 0 W/m² | - |
| 1787960112 | 14.44° C | 94% | 852.5 hPa | 1.52 mm | - | 0 W/m² | - |
| 1787959511 | 14.44° C | 90% | 852.5 hPa | 0 mm | - | 0 W/m² | - |
| 1787958912 | 14.44° C | 89% | 852.5 hPa | 0 mm | - | 0 W/m² | - |
| 1787958312 | 14.44° C | 91% | 852.9 hPa | 0 mm | - | 0 W/m² | - |
| 1787957712 | 14.44° C | 91% | 852.9 hPa | 0 mm | - | 0 W/m² | - |
| 1787956885 | 14.44° C | 90% | 852.9 hPa | 0.25 mm | - | 0 W/m² | - |
| 1787956512 | 14.44° C | 89% | 852.7 hPa | 0.25 mm | - | 0 W/m² | - |
| 1787955912 | 14.44° C | 89% | 852.5 hPa | 0.25 mm | - | 0 W/m² | - |
| 1787955085 | 15° C | 86% | 852.5 hPa | 0.25 mm | - | 0 W/m² | - |
| 1787954711 | 15° C | 86% | 852.9 hPa | 0.25 mm | - | 0 W/m² | - |
| 1787954112 | 15.56° C | 87% | 853.1 hPa | 0.25 mm | - | 0 W/m² | - |
| 1787953285 | 15° C | 88% | 852.9 hPa | 0 mm | - | 0 W/m² | - |
| 1787952912 | 15.56° C | 85% | 852.8 hPa | 0 mm | - | 0 W/m² | - |
| 1787952312 | 16.11° C | 78% | 852.1 hPa | 0 mm | - | 0 W/m² | - |
| 1787951485 | 17.22° C | 73% | 851.6 hPa | 0 mm | - | 0 W/m² | - |
| 1787951112 | 20° C | 39% | 851.2 hPa | 0 mm | - | 0 W/m² | - |
| 1787950512 | 20.56° C | 38% | 851.2 hPa | 0 mm | - | 0 W/m² | - |
| 1787949686 | 20.56° C | 38% | 851.1 hPa | 0 mm | - | 0 W/m² | - |
| 1787949312 | 20° C | 39% | 851.1 hPa | 0 mm | - | 0 W/m² | - |
* Rain latest hour (hover to see other rain measurements)
** Current wind speed in m/s (hover to see current wind gust speed)